createdAt,value
2018-04-12T00:00:54.255Z,36.30
2018-04-12T00:03:25.475Z,35.23
2018-04-12T00:05:56.707Z,39.30
2018-04-12T00:08:28.631Z,36.13
2018-04-12T00:11:00.001Z,33.03
2018-04-12T00:13:32.220Z,36.50
2018-04-12T00:16:03.470Z,34.20
2018-04-12T00:18:34.914Z,31.83
2018-04-12T00:21:06.095Z,38.20
2018-04-12T00:23:38.098Z,36.17
2018-04-12T00:26:10.141Z,33.47
2018-04-12T00:28:41.391Z,37.70
2018-04-12T00:31:12.626Z,36.43
2018-04-12T00:33:44.617Z,37.83
2018-04-12T00:36:15.946Z,34.60
2018-04-12T00:38:47.156Z,36.63
2018-04-12T00:41:18.396Z,38.67
2018-04-12T00:43:49.636Z,37.40
2018-04-12T00:46:20.850Z,36.83
2018-04-12T00:48:52.062Z,39.33
2018-04-12T00:51:24.038Z,37.67
2018-04-12T00:54:00.226Z,36.33
2018-04-12T00:56:31.652Z,34.83
2018-04-12T00:59:02.874Z,38.67
2018-04-12T01:01:34.806Z,35.53
2018-04-12T01:04:06.057Z,40.00
2018-04-12T01:06:37.239Z,37.43
2018-04-12T01:09:08.458Z,38.70
2018-04-12T01:11:40.528Z,36.10
2018-04-12T01:14:12.524Z,35.20
2018-04-12T01:16:43.765Z,39.87
2018-04-12T01:19:15.079Z,36.63
2018-04-12T01:21:47.018Z,34.83
2018-04-12T01:24:18.221Z,36.50
2018-04-12T01:26:49.461Z,35.23
2018-04-12T01:29:20.705Z,36.60
2018-04-12T01:31:51.919Z,39.07
2018-04-12T01:34:24.111Z,35.23
2018-04-12T01:36:55.377Z,39.10
2018-04-12T01:39:26.621Z,36.70
2018-04-12T01:41:57.789Z,38.63
2018-04-12T01:44:29.020Z,38.07
2018-04-12T01:47:00.200Z,40.83
2018-04-12T01:49:32.178Z,37.37
2018-04-12T01:52:04.137Z,36.13
2018-04-12T01:54:36.067Z,36.10
2018-04-12T01:57:08.102Z,37.20
2018-04-12T01:59:39.329Z,39.07
2018-04-12T02:02:10.586Z,36.30
2018-04-12T02:04:41.799Z,34.43
2018-04-12T02:07:13.500Z,41.87
2018-04-12T02:09:45.020Z,36.13
2018-04-12T02:12:16.241Z,35.30
2018-04-12T02:14:48.272Z,38.33
2018-04-12T02:17:19.541Z,40.57
2018-04-12T02:19:51.486Z,36.80
2018-04-12T02:22:22.697Z,36.63
2018-04-12T02:24:53.886Z,38.37
2018-04-12T02:27:25.814Z,39.37
2018-04-12T02:29:57.237Z,41.83
2018-04-12T02:32:28.412Z,34.57
2018-04-12T02:35:00.695Z,36.80
2018-04-12T02:37:31.926Z,38.37
2018-04-12T02:40:03.137Z,38.50
2018-04-12T02:42:34.857Z,35.70
2018-04-12T02:45:07.568Z,37.87
2018-04-12T02:47:38.777Z,39.33
2018-04-12T02:50:10.034Z,37.63
2018-04-12T02:52:42.184Z,39.57
2018-04-12T02:55:14.166Z,37.17
2018-04-12T02:57:45.472Z,36.97
2018-04-12T03:00:16.719Z,42.07
2018-04-12T03:02:47.888Z,36.77
2018-04-12T03:05:20.070Z,35.47
2018-04-12T03:07:51.261Z,38.80
2018-04-12T03:10:22.522Z,39.17
2018-04-12T03:12:53.738Z,32.97
2018-04-12T03:15:24.962Z,39.17
2018-04-12T03:17:56.223Z,38.70
2018-04-12T03:20:27.608Z,41.07
2018-04-12T03:22:59.545Z,37.03
2018-04-12T03:25:30.958Z,37.23
2018-04-12T03:28:02.234Z,38.40
2018-04-12T03:30:33.630Z,37.07
2018-04-12T03:33:04.841Z,40.13
2018-04-12T03:35:36.841Z,38.50
2018-04-12T03:38:08.111Z,39.23
2018-04-12T03:40:39.288Z,42.40
2018-04-12T03:43:10.495Z,39.03
2018-04-12T03:45:41.734Z,43.43
2018-04-12T03:48:12.958Z,42.30
2018-04-12T03:50:44.196Z,41.30
2018-04-12T03:53:16.470Z,51.37
2018-04-12T03:55:47.715Z,39.33
2018-04-12T03:58:19.911Z,46.13
2018-04-12T04:00:51.105Z,41.40
2018-04-12T04:03:23.057Z,41.27
2018-04-12T04:05:54.238Z,43.97
2018-04-12T04:08:26.484Z,42.60
2018-04-12T04:10:57.574Z,46.00
2018-04-12T04:13:28.846Z,38.67
2018-04-12T04:16:23.178Z,40.00
2018-04-12T04:19:06.789Z,41.73
2018-04-12T04:21:38.711Z,36.23
2018-04-12T04:24:09.942Z,40.17
2018-04-12T04:26:41.203Z,39.97
2018-04-12T04:29:12.419Z,36.77
2018-04-12T04:31:43.600Z,38.40
2018-04-12T04:34:14.829Z,38.60
2018-04-12T04:36:46.206Z,41.43
2018-04-12T04:39:17.728Z,42.10
2018-04-12T04:41:49.694Z,39.33
2018-04-12T04:44:20.897Z,38.83
2018-04-12T04:46:52.088Z,38.87
2018-04-12T04:49:23.526Z,37.60
2018-04-12T04:51:55.498Z,40.97
2018-04-12T04:54:26.796Z,35.27
2018-04-12T04:56:58.045Z,38.57
2018-04-12T04:59:29.304Z,40.20
2018-04-12T05:02:00.526Z,40.93
2018-04-12T05:04:31.722Z,37.83
2018-04-12T05:07:03.128Z,39.47
2018-04-12T05:09:34.377Z,38.40
2018-04-12T05:12:05.623Z,37.80
2018-04-12T05:14:36.883Z,39.67
2018-04-12T05:17:08.057Z,38.07
2018-04-12T05:19:40.086Z,38.93
2018-04-12T05:22:11.281Z,40.37
2018-04-12T05:24:43.264Z,35.97
2018-04-12T05:27:14.473Z,38.83
2018-04-12T05:29:45.674Z,39.87
2018-04-12T05:32:16.934Z,42.00
2018-04-12T05:34:48.164Z,39.13
2018-04-12T05:37:19.411Z,38.87
2018-04-12T05:39:50.663Z,37.97
2018-04-12T05:42:21.910Z,36.13
2018-04-12T05:44:53.139Z,35.97
2018-04-12T05:47:24.575Z,40.00
2018-04-12T05:49:55.766Z,36.13
2018-04-12T05:52:27.726Z,35.73
2018-04-12T05:54:58.903Z,36.87
2018-04-12T05:57:30.146Z,34.93
2018-04-12T06:00:02.732Z,37.17
2018-04-12T06:02:33.957Z,38.80
2018-04-12T06:05:05.893Z,34.60
2018-04-12T06:07:37.384Z,41.13
2018-04-12T06:10:08.594Z,35.07
2018-04-12T06:12:39.807Z,32.17
2018-04-12T06:15:11.010Z,32.60
2018-04-12T06:17:42.967Z,34.37
2018-04-12T06:20:15.096Z,36.50
2018-04-12T06:22:46.377Z,32.23
2018-04-12T06:25:18.387Z,35.63
2018-04-12T06:27:49.628Z,36.13
2018-04-12T06:30:20.783Z,34.40
2018-04-12T06:32:52.018Z,31.33
2018-04-12T06:35:23.270Z,30.07
2018-04-12T06:37:54.690Z,32.70
2018-04-12T06:40:25.934Z,31.23
2018-04-12T06:42:57.148Z,28.10
2018-04-12T06:45:28.625Z,29.57
2018-04-12T06:47:59.809Z,28.70
2018-04-12T06:50:31.014Z,30.07
2018-04-12T06:53:02.296Z,28.93
2018-04-12T06:55:33.822Z,29.07
2018-04-12T06:58:05.343Z,29.93
2018-04-12T07:00:36.618Z,31.07
2018-04-12T07:03:08.159Z,30.63
2018-04-12T07:05:39.497Z,30.60
2018-04-12T07:08:10.730Z,27.47
2018-04-12T07:10:42.200Z,26.73
2018-04-12T07:13:13.762Z,29.00
2018-04-12T07:15:45.757Z,36.50
2018-04-12T07:18:17.732Z,27.90
2018-04-12T07:20:49.763Z,30.10
2018-04-12T07:23:21.012Z,27.03
2018-04-12T07:25:52.223Z,26.40
2018-04-12T07:28:23.393Z,26.97
2018-04-12T07:30:54.605Z,26.93
2018-04-12T07:33:25.820Z,30.50
2018-04-12T07:35:57.865Z,25.90
2018-04-12T07:38:30.087Z,27.03
2018-04-12T07:41:01.339Z,28.67
2018-04-12T07:43:32.558Z,29.90
2018-04-12T07:46:03.909Z,27.53
2018-04-12T07:48:35.418Z,25.10
2018-04-12T07:51:08.107Z,24.53
2018-04-12T07:53:40.089Z,26.13
2018-04-12T07:56:11.316Z,23.80
2018-04-12T07:58:43.262Z,27.40
2018-04-12T08:01:14.580Z,28.60
2018-04-12T08:03:45.826Z,25.53
2018-04-12T08:06:17.504Z,24.47
2018-04-12T08:08:48.757Z,24.00
2018-04-12T08:11:19.970Z,27.70
2018-04-12T08:13:51.236Z,28.37
2018-04-12T08:16:22.726Z,23.87
2018-04-12T08:18:53.987Z,26.40
2018-04-12T08:21:25.329Z,33.87
2018-04-12T08:23:56.583Z,23.47
2018-04-12T08:26:27.790Z,22.77
2018-04-12T08:28:59.764Z,26.20
2018-04-12T08:31:31.072Z,22.87
2018-04-12T08:34:02.562Z,23.73
2018-04-12T08:36:35.062Z,25.07
2018-04-12T08:39:06.447Z,23.50
2018-04-12T08:41:37.742Z,23.40
2018-04-12T08:44:08.961Z,23.57
2018-04-12T08:46:41.062Z,20.80
2018-04-12T08:49:12.304Z,22.23
2018-04-12T08:51:43.516Z,24.87
2018-04-12T08:54:15.501Z,26.40
2018-04-12T08:56:46.710Z,21.83
2018-04-12T08:59:18.695Z,23.20
2018-04-12T09:01:50.038Z,20.97
2018-04-12T09:04:21.265Z,26.77
2018-04-12T09:06:53.231Z,20.93
2018-04-12T09:09:25.242Z,23.93
2018-04-12T09:11:56.464Z,24.33
2018-04-12T09:14:27.702Z,22.50
2018-04-12T09:16:59.187Z,23.20
2018-04-12T09:19:30.508Z,24.07
2018-04-12T09:22:01.750Z,25.80
2018-04-12T09:24:33.018Z,21.23
2018-04-12T09:27:04.242Z,23.73
2018-04-12T09:29:35.558Z,21.73
2018-04-12T09:32:06.803Z,23.90
2018-04-12T09:34:38.029Z,22.97
2018-04-12T09:37:09.308Z,28.37
2018-04-12T09:39:41.298Z,21.43
2018-04-12T09:42:13.423Z,25.20
2018-04-12T09:44:45.386Z,21.27
2018-04-12T09:47:17.290Z,19.77
2018-04-12T09:49:48.821Z,20.57
2018-04-12T09:52:20.038Z,25.37
2018-04-12T09:54:52.038Z,22.70
2018-04-12T09:57:23.322Z,20.60
2018-04-12T09:59:54.667Z,21.63
2018-04-12T10:02:28.835Z,22.93
2018-04-12T10:05:00.716Z,23.60
2018-04-12T10:07:38.280Z,21.37
2018-04-12T10:10:09.572Z,22.90
2018-04-12T10:12:42.335Z,22.23
2018-04-12T10:15:13.518Z,23.67
2018-04-12T10:17:45.672Z,18.20
2018-04-12T10:20:17.118Z,23.87
2018-04-12T10:22:48.454Z,18.90
2018-04-12T10:25:20.442Z,21.50
2018-04-12T10:27:52.482Z,18.93
2018-04-12T10:30:23.830Z,22.53
2018-04-12T10:32:55.019Z,22.60
2018-04-12T10:35:27.169Z,19.83
2018-04-12T10:37:59.132Z,23.93
2018-04-12T10:40:31.160Z,19.67
2018-04-12T10:43:02.451Z,21.13
2018-04-12T10:45:33.794Z,21.63
2018-04-12T10:48:05.299Z,18.93
2018-04-12T10:50:36.608Z,17.97
2018-04-12T10:53:07.934Z,20.27
2018-04-12T10:55:39.218Z,22.13
2018-04-12T10:58:10.381Z,17.83
2018-04-12T11:00:42.457Z,22.10
2018-04-12T11:03:13.814Z,18.40
2018-04-12T11:05:45.022Z,19.87
2018-04-12T11:08:16.271Z,21.20
2018-04-12T11:10:47.494Z,19.87
2018-04-12T11:13:18.710Z,19.23
2018-04-12T11:15:50.198Z,23.47
2018-04-12T11:18:21.475Z,17.37
2018-04-12T11:20:52.972Z,22.37
2018-04-12T11:23:24.205Z,20.77
2018-04-12T11:25:55.492Z,21.83
2018-04-12T11:28:26.722Z,21.10
2018-04-12T11:30:58.902Z,20.50
2018-04-12T11:33:30.460Z,16.80
2018-04-12T11:36:01.642Z,18.57
2018-04-12T11:38:33.651Z,16.90
2018-04-12T11:41:04.875Z,17.77
2018-04-12T11:43:36.150Z,19.37
2018-04-12T11:46:07.374Z,21.30
2018-04-12T11:48:38.554Z,16.47
2018-04-12T11:51:10.602Z,18.40
2018-04-12T11:53:41.832Z,12.03
2018-04-12T11:56:13.049Z,13.07
2018-04-12T11:58:44.317Z,10.73
2018-04-12T12:01:15.567Z,11.23
2018-04-12T12:03:46.842Z,14.23
2018-04-12T12:06:19.080Z,14.23
2018-04-12T12:08:50.336Z,17.77
2018-04-12T12:11:22.444Z,11.60
2018-04-12T12:13:54.403Z,15.93
2018-04-12T12:16:26.387Z,16.37
2018-04-12T12:18:57.606Z,13.03
2018-04-12T12:21:29.621Z,11.50
2018-04-12T12:24:01.514Z,9.60
2018-04-12T12:26:37.317Z,13.33
2018-04-12T12:29:09.344Z,12.73
2018-04-12T12:31:42.464Z,12.47
2018-04-12T12:34:13.892Z,14.37
2018-04-12T12:36:46.202Z,12.70
2018-04-12T12:39:18.375Z,12.17
2018-04-12T12:41:49.639Z,12.47
2018-04-12T12:44:22.165Z,10.97
2018-04-12T12:46:53.583Z,12.97
2018-04-12T12:49:24.800Z,11.33
2018-04-12T12:51:56.003Z,13.07
2018-04-12T12:54:27.198Z,12.77
2018-04-12T12:56:58.443Z,14.17
2018-04-12T12:59:29.690Z,15.23
2018-04-12T13:02:01.750Z,18.33
2018-04-12T13:04:34.813Z,10.23
2018-04-12T13:07:06.015Z,13.20
2018-04-12T13:09:37.980Z,16.80
2018-04-12T13:12:09.280Z,10.37
2018-04-12T13:14:40.527Z,15.90
2018-04-12T13:17:11.839Z,15.63
2018-04-12T13:19:43.045Z,12.80
2018-04-12T13:22:15.356Z,10.83
2018-04-12T13:24:46.616Z,13.90
2018-04-12T13:27:17.838Z,11.07
2018-04-12T13:29:49.177Z,12.77
2018-04-12T13:32:20.594Z,13.17
2018-04-12T13:34:52.567Z,12.67
2018-04-12T13:37:23.847Z,15.30
2018-04-12T13:39:55.083Z,16.73
2018-04-12T13:42:26.413Z,11.07
2018-04-12T13:44:57.659Z,12.23
2018-04-12T13:47:29.135Z,12.13
2018-04-12T13:50:00.401Z,14.47
2018-04-12T13:52:44.791Z,10.50
2018-04-12T13:55:16.211Z,11.70
2018-04-12T13:57:47.415Z,17.07
2018-04-12T14:00:19.820Z,11.63
2018-04-12T14:02:51.371Z,15.27
2018-04-12T14:05:22.718Z,9.70
2018-04-12T14:07:54.177Z,12.67
2018-04-12T14:10:25.522Z,15.33
2018-04-12T14:12:56.760Z,12.47
2018-04-12T14:15:27.955Z,17.83
2018-04-12T14:17:59.229Z,19.40
2018-04-12T14:20:30.616Z,21.00
2018-04-12T14:23:01.838Z,13.77
2018-04-12T14:25:33.147Z,14.30
2018-04-12T14:28:04.393Z,15.93
2018-04-12T14:30:35.648Z,13.27
2018-04-12T14:33:06.892Z,13.67
2018-04-12T14:35:38.086Z,14.47
2018-04-12T14:38:10.394Z,14.77
2018-04-12T14:40:41.561Z,11.37
2018-04-12T14:43:12.784Z,12.27
2018-04-12T14:45:43.971Z,16.13
2018-04-12T14:48:15.227Z,16.77
2018-04-12T14:50:47.300Z,15.00
2018-04-12T14:53:19.297Z,13.43
2018-04-12T14:55:50.545Z,17.57
2018-04-12T14:58:21.988Z,16.73
2018-04-12T15:00:53.259Z,16.50
2018-04-12T15:03:24.466Z,15.47
2018-04-12T15:05:56.458Z,18.83
2018-04-12T15:08:27.670Z,14.93
2018-04-12T15:10:58.901Z,14.00
2018-04-12T15:13:30.696Z,17.33
2018-04-12T15:16:01.910Z,14.63
2018-04-12T15:18:33.110Z,18.37
2018-04-12T15:21:04.376Z,17.33
2018-04-12T15:23:35.621Z,17.43
2018-04-12T15:26:08.483Z,15.90
2018-04-12T15:28:40.543Z,17.10
2018-04-12T15:31:11.791Z,16.20
2018-04-12T15:33:43.020Z,17.03
2018-04-12T15:36:14.473Z,19.03
2018-04-12T15:38:45.810Z,22.40
2018-04-12T15:41:17.051Z,17.97
2018-04-12T15:43:48.508Z,22.33
2018-04-12T15:46:19.758Z,17.80
2018-04-12T15:48:51.206Z,20.90
2018-04-12T15:51:22.395Z,22.53
2018-04-12T15:53:54.358Z,20.10
2018-04-12T15:56:25.632Z,21.50
2018-04-12T15:58:56.883Z,17.90
2018-04-12T16:01:28.143Z,18.80
2018-04-12T16:03:59.376Z,26.47
2018-04-12T16:06:30.675Z,20.93
2018-04-12T16:09:01.928Z,24.37
2018-04-12T16:11:33.306Z,20.73
2018-04-12T16:14:04.529Z,25.17
2018-04-12T16:16:35.812Z,22.03
2018-04-12T16:19:07.010Z,23.73
2018-04-12T16:21:38.958Z,23.23
2018-04-12T16:24:10.579Z,23.83
2018-04-12T16:26:41.904Z,25.27
2018-04-12T16:29:13.145Z,23.13
2018-04-12T16:31:44.338Z,22.67
2018-04-12T16:34:16.573Z,26.00
2018-04-12T16:36:47.777Z,24.03
2018-04-12T16:39:19.008Z,24.27
2018-04-12T16:41:50.227Z,26.23
2018-04-12T16:44:21.461Z,26.33
2018-04-12T16:46:52.790Z,24.27
2018-04-12T16:49:24.024Z,24.70
2018-04-12T16:51:55.287Z,28.93
2018-04-12T16:54:26.543Z,25.83
2018-04-12T16:56:57.770Z,27.47
2018-04-12T16:59:28.995Z,21.03
2018-04-12T17:02:01.057Z,28.47
2018-04-12T17:04:32.319Z,23.23
2018-04-12T17:07:03.693Z,24.43
2018-04-12T17:09:34.900Z,24.83
2018-04-12T17:12:06.089Z,23.20
2018-04-12T17:14:37.359Z,26.67
2018-04-12T17:17:09.300Z,22.80
2018-04-12T17:19:41.327Z,25.40
2018-04-12T17:22:12.563Z,24.63
2018-04-12T17:24:44.628Z,23.57
2018-04-12T17:27:15.858Z,22.17
2018-04-12T17:29:47.301Z,25.30
2018-04-12T17:32:18.477Z,26.07
2018-04-12T17:34:49.802Z,26.03
2018-04-12T17:37:21.047Z,23.73
2018-04-12T17:39:52.248Z,23.90
2018-04-12T17:42:24.192Z,21.90
2018-04-12T17:44:55.383Z,23.17
2018-04-12T17:47:26.659Z,28.67
2018-04-12T17:49:57.877Z,27.23
2018-04-12T17:52:29.421Z,25.33
2018-04-12T17:55:00.580Z,23.53
2018-04-12T17:57:31.801Z,26.83
2018-04-12T18:00:03.041Z,26.67
2018-04-12T18:02:34.610Z,29.43
2018-04-12T18:05:05.769Z,26.50
2018-04-12T18:07:37.134Z,25.73
2018-04-12T18:10:08.347Z,25.87
2018-04-12T18:12:39.590Z,28.23
2018-04-12T18:15:10.789Z,27.37
2018-04-12T18:17:42.714Z,29.67
2018-04-12T18:20:13.887Z,28.27
2018-04-12T18:22:45.151Z,27.97
2018-04-12T18:25:16.447Z,30.23
2018-04-12T18:27:47.671Z,31.17
2018-04-12T18:30:19.116Z,26.27
2018-04-12T18:32:50.325Z,33.63
2018-04-12T18:35:22.255Z,31.00
2018-04-12T18:37:54.287Z,27.47
2018-04-12T18:40:25.662Z,32.00
2018-04-12T18:42:56.876Z,28.00
2018-04-12T18:45:28.116Z,27.77
2018-04-12T18:47:59.379Z,30.00
2018-04-12T18:50:30.601Z,26.37
2018-04-12T18:53:01.818Z,29.00
2018-04-12T18:55:33.051Z,28.90
2018-04-12T18:58:05.007Z,29.40
2018-04-12T19:00:36.191Z,29.73
2018-04-12T19:03:07.485Z,29.20
2018-04-12T19:05:38.942Z,29.40
2018-04-12T19:08:10.947Z,35.33
2018-04-12T19:10:42.166Z,28.23
2018-04-12T19:13:13.334Z,28.13
2018-04-12T19:15:45.040Z,28.97
2018-04-12T19:18:16.292Z,30.03
2018-04-12T19:20:48.307Z,29.63
2018-04-12T19:23:19.506Z,31.60
2018-04-12T19:25:50.737Z,29.90
2018-04-12T19:28:22.132Z,29.73
2018-04-12T19:30:53.382Z,32.03
2018-04-12T19:33:24.622Z,31.03
2018-04-12T19:35:55.888Z,31.43
2018-04-12T19:38:27.131Z,28.57
2018-04-12T19:40:58.321Z,30.90
2018-04-12T19:43:31.049Z,27.63
2018-04-12T19:46:02.258Z,29.53
2018-04-12T19:48:34.304Z,33.60
2018-04-12T19:51:05.478Z,33.00
2018-04-12T19:53:36.670Z,32.90
2018-04-12T19:56:07.911Z,41.13
2018-04-12T19:58:39.127Z,33.23
2018-04-12T20:01:10.307Z,35.43
2018-04-12T20:03:41.705Z,34.73
2018-04-12T20:06:12.879Z,32.60
2018-04-12T20:08:44.301Z,32.57
2018-04-12T20:11:15.495Z,35.30
2018-04-12T20:13:46.769Z,33.60
2018-04-12T20:16:18.704Z,37.83
2018-04-12T20:18:49.893Z,34.50
2018-04-12T20:21:21.068Z,33.57
2018-04-12T20:23:52.353Z,32.73
2018-04-12T20:26:24.313Z,33.53
2018-04-12T20:28:55.576Z,33.07
2018-04-12T20:31:26.801Z,40.30
2018-04-12T20:33:58.009Z,36.40
2018-04-12T20:36:29.227Z,36.90
2018-04-12T20:39:00.429Z,42.03
2018-04-12T20:41:32.393Z,36.83
2018-04-12T20:44:04.312Z,36.13
2018-04-12T20:46:35.835Z,37.13
2018-04-12T20:49:07.062Z,37.87
2018-04-12T20:51:39.347Z,38.83
2018-04-12T20:54:10.535Z,40.23
2018-04-12T20:56:41.754Z,37.83
2018-04-12T20:59:12.917Z,37.97
2018-04-12T21:01:44.124Z,38.23
2018-04-12T21:04:15.347Z,36.17
2018-04-12T21:06:47.352Z,42.87
2018-04-12T21:09:18.515Z,42.10
2018-04-12T21:11:49.733Z,39.70
2018-04-12T21:14:21.245Z,38.97
2018-04-12T21:16:53.143Z,39.80
2018-04-12T21:19:24.331Z,43.00
2018-04-12T21:21:55.533Z,42.30
2018-04-12T21:24:26.783Z,38.27
2018-04-12T21:26:58.019Z,40.90
2018-04-12T21:29:29.297Z,40.53
2018-04-12T21:32:00.524Z,41.30
2018-04-12T21:34:31.722Z,39.30
2018-04-12T21:37:03.146Z,38.17
2018-04-12T21:39:35.091Z,38.10
2018-04-12T21:42:06.495Z,41.77
2018-04-12T21:44:37.687Z,39.27
2018-04-12T21:47:09.800Z,40.40
2018-04-12T21:49:41.005Z,39.33
2018-04-12T21:52:13.327Z,38.23
2018-04-12T21:54:44.542Z,40.27
2018-04-12T21:57:15.775Z,42.50
2018-04-12T21:59:47.002Z,39.70
2018-04-12T22:02:18.970Z,42.77
2018-04-12T22:04:50.905Z,38.30
2018-04-12T22:07:22.131Z,40.93
2018-04-12T22:09:53.480Z,41.00
2018-04-12T22:12:24.700Z,39.03
2018-04-12T22:14:55.915Z,39.47
2018-04-12T22:17:27.901Z,44.40
2018-04-12T22:19:59.111Z,40.07
2018-04-12T22:22:30.344Z,44.83
2018-04-12T22:25:01.519Z,42.90
2018-04-12T22:27:32.742Z,42.43
2018-04-12T22:30:03.929Z,52.00
2018-04-12T22:32:35.171Z,42.90
2018-04-12T22:35:06.384Z,42.23
2018-04-12T22:37:38.342Z,48.17
2018-04-12T22:40:09.562Z,43.50
2018-04-12T22:42:40.828Z,48.13
2018-04-12T22:45:12.034Z,45.13
2018-04-12T22:47:43.251Z,49.23
2018-04-12T22:50:14.487Z,46.20
2018-04-12T22:52:45.732Z,47.03
2018-04-12T22:55:16.926Z,45.30
2018-04-12T22:57:48.443Z,47.13
2018-04-12T23:00:19.620Z,44.80
2018-04-12T23:02:51.129Z,45.73
2018-04-12T23:05:22.307Z,43.20
2018-04-12T23:07:53.506Z,41.93
2018-04-12T23:10:24.747Z,43.10
2018-04-12T23:12:55.965Z,47.00
2018-04-12T23:15:27.125Z,47.43
2018-04-12T23:17:59.066Z,43.87
2018-04-12T23:20:30.996Z,45.60
2018-04-12T23:23:02.454Z,44.00
2018-04-12T23:25:33.595Z,45.30
2018-04-12T23:28:05.115Z,40.53
2018-04-12T23:30:36.345Z,42.93
2018-04-12T23:33:07.919Z,42.90
2018-04-12T23:35:39.091Z,42.67
2018-04-12T23:38:10.575Z,40.37
2018-04-12T23:40:42.497Z,44.07
2018-04-12T23:43:13.716Z,40.90
2018-04-12T23:45:44.922Z,42.33
2018-04-12T23:48:16.899Z,41.17
2018-04-12T23:50:48.135Z,46.17
2018-04-12T23:53:20.108Z,45.07
2018-04-12T23:55:51.295Z,43.80
2018-04-12T23:58:22.542Z,41.93
